Terminal Aerodrome Forecast
Issued by NWS Northern Indiana

Home | Current Version | Previous Version | Text Only | Print | Product List | Glossary On
Versions: 1 2 3 4 5 6 7 8 9 10 11 12 13 14 15 16
000
FTUS43 KIWX 261816 CCA
TAFFWA
TAF COR
KFWA 261816Z 2618/2718 24004KT P6SM VCSH SCT020 BKN050
      TEMPO 2618/2620 5SM -SHRA BR BKN020 OVC050
     FM262100 23010KT 3SM SHRA OVC015
     FM270000 19006KT P6SM RA OVC015
     FM270300 23006KT P6SM VCSH OVC015
     FM270500 24007KT 5SM BR OVC003
     FM271700 21006KT P6SM BKN015=

USA.gov is the U.S. government's official web portal to all federal, state and local government web resources and services.